Time;durP1;ratioP1;P1;durP2;ratioP2;P2;SDS_P1;SDS_P2;PMS_P1;PMS_P2;Temp;Humidity;BMP_temperature;BMP_pressure;BME280_temperature;BME280_humidity;BME280_pressure;Samples;Min_cycle;Max_cycle;Signal;HPM_P1;HPM_P2
2021/08/12 00:00:08;;;;;;;8.85;6.90;;;23.70;87.10;;;;;;1887086;76;21112;-47
2021/08/12 00:02:37;;;;;;;9.88;7.40;;;23.80;87.20;;;;;;1886943;76;21104;-48
2021/08/12 00:05:08;;;;;;;11.80;7.75;;;23.80;87.20;;;;;;1886950;76;21198;-48
2021/08/12 00:07:38;;;;;;;8.93;6.62;;;23.80;87.20;;;;;;1887004;76;21009;-48
2021/08/12 00:10:07;;;;;;;13.50;7.75;;;23.90;87.10;;;;;;1886902;76;21092;-48
2021/08/12 00:12:37;;;;;;;12.88;7.55;;;23.90;87.00;;;;;;1886943;75;21081;-47
2021/08/12 00:15:07;;;;;;;11.95;7.40;;;24.00;87.00;;;;;;1887034;75;21137;-47
2021/08/12 00:17:36;;;;;;;11.85;7.15;;;24.00;86.80;;;;;;1886951;76;21096;-48
2021/08/12 00:20:07;;;;;;;10.88;6.87;;;24.00;86.70;;;;;;1886951;76;21017;-47
2021/08/12 00:22:37;;;;;;;9.95;6.72;;;24.00;86.70;;;;;;1886959;76;21037;-47
2021/08/12 00:25:07;;;;;;;11.60;7.45;;;24.00;86.70;;;;;;1886957;74;21340;-48
2021/08/12 00:27:37;;;;;;;10.95;7.42;;;23.90;86.80;;;;;;1886983;76;21060;-49
2021/08/12 00:30:07;;;;;;;14.25;6.65;;;23.90;86.80;;;;;;1886941;76;21150;-48
2021/08/12 00:32:37;;;;;;;13.43;7.00;;;23.90;86.80;;;;;;1886911;76;21065;-47
2021/08/12 00:35:07;;;;;;;10.43;7.47;;;23.90;86.80;;;;;;1886902;76;21088;-49
2021/08/12 00:37:37;;;;;;;12.03;7.12;;;23.90;86.70;;;;;;1887043;76;21112;-47
2021/08/12 00:40:08;;;;;;;10.90;7.10;;;23.80;86.50;;;;;;1886953;76;21084;-47
2021/08/12 00:42:39;;;;;;;13.48;7.90;;;23.80;86.30;;;;;;1887139;76;21009;-49
2021/08/12 00:45:09;;;;;;;10.65;7.58;;;23.70;86.50;;;;;;1886899;76;21103;-48
2021/08/12 00:47:40;;;;;;;12.25;7.40;;;23.70;86.70;;;;;;1886934;76;21053;-48
2021/08/12 00:50:10;;;;;;;9.93;6.97;;;23.70;86.80;;;;;;1886980;75;21106;-48
2021/08/12 00:52:40;;;;;;;11.20;8.43;;;23.70;86.80;;;;;;1886926;76;21095;-48
2021/08/12 00:55:11;;;;;;;13.10;7.00;;;23.70;86.80;;;;;;1886934;76;21048;-49
2021/08/12 00:57:41;;;;;;;11.78;7.67;;;23.80;86.70;;;;;;1886958;76;21052;-49
2021/08/12 01:00:11;;;;;;;11.75;7.97;;;23.70;86.50;;;;;;1886898;76;21029;-48
2021/08/12 01:02:41;;;;;;;10.45;6.70;;;23.80;86.50;;;;;;1887013;76;21009;-49
2021/08/12 01:05:13;;;;;;;11.70;7.67;;;23.80;86.50;;;;;;1886085;76;21013;-47
2021/08/12 01:07:56;;;;;;;18.15;8.40;;;23.80;86.50;;;;;;1886788;76;21073;-48
2021/08/12 01:10:45;;;;;;;10.28;7.10;;;23.80;86.30;;;;;;1887062;76;21049;-47
2021/08/12 01:13:20;;;;;;;14.70;8.18;;;23.70;86.40;;;;;;1885732;76;21110;-49
2021/08/12 01:15:52;;;;;;;10.00;6.67;;;23.70;86.50;;;;;;1886820;76;21060;-49
2021/08/12 01:18:42;;;;;;;9.15;7.53;;;23.70;86.60;;;;;;1886996;76;21452;-47
2021/08/12 01:21:40;;;;;;;11.22;8.20;;;23.70;86.70;;;;;;1853445;76;21427;-48
2021/08/12 01:24:12;;;;;;;12.45;7.92;;;23.70;86.70;;;;;;1886319;76;21033;-49
2021/08/12 01:26:46;;;;;;;12.95;7.85;;;23.60;86.50;;;;;;1886834;76;21088;-48
2021/08/12 01:29:19;;;;;;;11.28;7.70;;;23.50;86.70;;;;;;1886796;76;21025;-47
2021/08/12 01:32:08;;;;;;;11.33;7.42;;;23.50;87.00;;;;;;1885948;76;21056;-48
2021/08/12 01:34:52;;;;;;;10.58;7.50;;;23.50;87.20;;;;;;1886854;76;21049;-49
2021/08/12 01:37:24;;;;;;;9.05;7.97;;;23.60;87.20;;;;;;1887080;76;20998;-49
2021/08/12 01:39:56;;;;;;;9.20;7.50;;;23.60;87.20;;;;;;1886823;76;21156;-48
2021/08/12 01:42:29;;;;;;;10.55;6.55;;;23.60;87.00;;;;;;1886889;76;21127;-47
2021/08/12 01:45:00;;;;;;;14.43;7.00;;;23.60;87.00;;;;;;1886959;76;21021;-46
2021/08/12 01:47:32;;;;;;;6.70;6.00;;;23.60;86.90;;;;;;1886907;76;21171;-47
2021/08/12 01:50:06;;;;;;;9.68;7.08;;;23.60;87.00;;;;;;1886873;76;21111;-48
2021/08/12 01:52:37;;;;;;;11.57;7.17;;;23.60;87.00;;;;;;1886927;76;21170;-50
2021/08/12 01:55:08;;;;;;;10.23;6.80;;;23.60;86.90;;;;;;1886830;76;21099;-50
2021/08/12 01:57:41;;;;;;;7.30;6.60;;;23.60;86.80;;;;;;1885999;76;21082;-49
2021/08/12 02:00:12;;;;;;;7.22;6.22;;;23.60;87.00;;;;;;1886793;76;21170;-47
2021/08/12 02:02:45;;;;;;;9.18;6.00;;;23.50;87.00;;;;;;1886747;76;21053;-48
2021/08/12 02:05:17;;;;;;;14.47;7.45;;;23.50;86.90;;;;;;1886763;76;21172;-47
2021/08/12 02:07:48;;;;;;;13.50;7.67;;;23.60;86.90;;;;;;1886922;76;21128;-48
2021/08/12 02:10:19;;;;;;;9.70;6.75;;;23.60;86.50;;;;;;1886928;76;21049;-48
2021/08/12 02:12:49;;;;;;;11.83;7.60;;;23.60;86.50;;;;;;1886858;76;21130;-49
2021/08/12 02:15:18;;;;;;;9.68;6.72;;;23.60;86.50;;;;;;1886901;76;21249;-47
2021/08/12 02:17:48;;;;;;;11.45;7.87;;;23.60;86.40;;;;;;1886858;76;21123;-50
2021/08/12 02:20:18;;;;;;;15.93;7.50;;;23.50;86.40;;;;;;1886931;76;21033;-49
2021/08/12 02:23:10;;;;;;;8.68;6.50;;;23.50;86.50;;;;;;1886826;76;21148;-49
2021/08/12 02:26:05;;;;;;;10.40;6.67;;;23.50;86.70;;;;;;1886801;74;21026;-47
2021/08/12 02:28:35;;;;;;;15.13;7.47;;;23.40;86.80;;;;;;1881520;76;21033;-49
2021/08/12 02:31:06;;;;;;;7.67;6.10;;;23.40;86.90;;;;;;1886942;76;21013;-49
2021/08/12 02:33:37;;;;;;;12.07;7.58;;;23.50;87.00;;;;;;1886965;76;21033;-48
2021/08/12 02:36:08;;;;;;;10.18;7.55;;;23.50;87.00;;;;;;1886979;76;21572;-47
2021/08/12 02:38:40;;;;;;;19.17;8.05;;;23.50;86.90;;;;;;1886876;76;21162;-50
2021/08/12 02:41:13;;;;;;;12.58;8.13;;;23.50;87.10;;;;;;1886961;76;21025;-50
2021/08/12 02:43:44;;;;;;;10.08;7.08;;;23.40;87.10;;;;;;1886970;76;21053;-50
2021/08/12 02:46:17;;;;;;;12.50;7.53;;;23.40;87.20;;;;;;1887007;76;20997;-50
2021/08/12 02:48:47;;;;;;;10.82;7.20;;;23.40;87.30;;;;;;1886878;76;21041;-48
2021/08/12 02:51:17;;;;;;;11.63;7.70;;;23.40;87.30;;;;;;1887010;76;21111;-47
2021/08/12 02:53:46;;;;;;;10.75;7.83;;;23.40;87.40;;;;;;1886876;75;21036;-49
2021/08/12 02:56:17;;;;;;;13.68;9.38;;;23.50;87.50;;;;;;1887007;76;21013;-49
2021/08/12 02:58:48;;;;;;;13.10;8.55;;;23.50;87.40;;;;;;1886846;76;21150;-49
2021/08/12 03:01:19;;;;;;;13.75;9.73;;;23.50;87.50;;;;;;1886881;76;21119;-47
2021/08/12 03:03:49;;;;;;;16.20;9.45;;;23.50;87.40;;;;;;1886875;76;21109;-48
2021/08/12 03:06:21;;;;;;;16.67;9.60;;;23.50;87.30;;;;;;1886952;75;21173;-50
2021/08/12 03:08:52;;;;;;;15.05;10.28;;;23.50;87.30;;;;;;1886928;76;21108;-49
2021/08/12 03:11:22;;;;;;;17.25;11.08;;;23.40;87.20;;;;;;1886825;76;21479;-50
2021/08/12 03:13:54;;;;;;;13.98;11.15;;;23.40;87.20;;;;;;1886730;76;21058;-49
2021/08/12 03:16:25;;;;;;;22.73;12.18;;;23.30;87.40;;;;;;1886889;76;21060;-49
2021/08/12 03:18:54;;;;;;;20.12;12.63;;;23.30;87.50;;;;;;1886867;76;21108;-48
2021/08/12 03:21:24;;;;;;;21.50;13.95;;;23.30;87.70;;;;;;1886908;76;21103;-48
2021/08/12 03:23:54;;;;;;;26.05;13.75;;;23.30;88.00;;;;;;1886830;76;21103;-47
2021/08/12 03:26:24;;;;;;;26.55;14.25;;;23.30;88.20;;;;;;1886798;75;21061;-47
2021/08/12 03:28:53;;;;;;;33.35;15.15;;;23.30;88.20;;;;;;1886838;76;21013;-50
2021/08/12 03:31:23;;;;;;;33.85;16.60;;;23.40;88.20;;;;;;1886864;76;21053;-49
2021/08/12 03:33:53;;;;;;;27.35;14.60;;;23.50;88.10;;;;;;1886893;76;21037;-48
2021/08/12 03:36:23;;;;;;;30.85;15.32;;;23.50;88.00;;;;;;1859643;76;21158;-48
2021/08/12 03:38:53;;;;;;;26.00;15.80;;;23.50;88.00;;;;;;1886884;75;21170;-50
2021/08/12 03:41:22;;;;;;;27.25;15.45;;;23.50;87.90;;;;;;1886892;76;21009;-50
2021/08/12 03:43:52;;;;;;;23.50;15.40;;;23.50;88.00;;;;;;1887018;76;21115;-49
2021/08/12 03:46:21;;;;;;;28.73;15.18;;;23.60;88.00;;;;;;1886861;76;21013;-49
2021/08/12 03:48:51;;;;;;;24.37;16.15;;;23.60;88.00;;;;;;1886955;76;21492;-48
2021/08/12 03:51:20;;;;;;;55.73;18.15;;;23.60;88.00;;;;;;1886825;76;21154;-48
2021/08/12 03:53:49;;;;;;;31.48;15.93;;;23.60;87.90;;;;;;1887037;75;21521;-50
2021/08/12 03:56:18;;;;;;;33.35;15.90;;;23.60;88.00;;;;;;1886983;76;21464;-49
2021/08/12 03:58:49;;;;;;;24.18;15.28;;;23.60;88.20;;;;;;1886968;76;21017;-50
2021/08/12 04:01:19;;;;;;;29.05;17.00;;;23.60;88.30;;;;;;1886834;76;21033;-50
2021/08/12 04:03:49;;;;;;;21.87;14.60;;;23.60;88.30;;;;;;1886910;76;21044;-47
2021/08/12 04:06:18;;;;;;;18.50;13.83;;;23.70;88.20;;;;;;1886883;76;21033;-50
2021/08/12 04:08:48;;;;;;;20.70;14.18;;;23.70;88.10;;;;;;1886849;76;21057;-48
2021/08/12 04:11:17;;;;;;;19.73;13.58;;;23.70;88.20;;;;;;1886843;76;21084;-49
2021/08/12 04:13:47;;;;;;;19.05;14.03;;;23.70;88.30;;;;;;1886931;76;21049;-50
2021/08/12 04:16:16;;;;;;;21.33;14.10;;;23.70;88.10;;;;;;1886942;76;21037;-48
2021/08/12 04:18:46;;;;;;;16.93;12.60;;;23.70;88.10;;;;;;1886822;75;21053;-50
2021/08/12 04:21:16;;;;;;;19.05;13.10;;;23.80;88.10;;;;;;1886998;76;21030;-48
2021/08/12 04:23:45;;;;;;;21.12;14.35;;;23.80;88.00;;;;;;1887003;76;21057;-47
2021/08/12 04:26:15;;;;;;;21.60;15.75;;;23.80;87.90;;;;;;1886813;75;21093;-51
2021/08/12 04:28:44;;;;;;;21.55;15.78;;;23.80;87.90;;;;;;1892211;75;21238;-51
2021/08/12 04:31:14;;;;;;;22.05;14.90;;;23.80;87.80;;;;;;1893279;75;21099;-51
2021/08/12 04:33:43;;;;;;;22.40;16.00;;;23.80;87.80;;;;;;1893403;76;21041;-50
2021/08/12 04:36:13;;;;;;;20.50;14.75;;;23.80;87.90;;;;;;1893438;76;21037;-51
2021/08/12 04:38:43;;;;;;;22.00;14.63;;;23.80;87.90;;;;;;1893333;76;21111;-49
2021/08/12 04:41:13;;;;;;;21.82;14.53;;;23.70;87.90;;;;;;1893530;76;21009;-50
2021/08/12 04:43:42;;;;;;;19.98;15.35;;;23.70;88.10;;;;;;1893323;75;21041;-50
2021/08/12 04:46:11;;;;;;;20.72;15.03;;;23.70;88.20;;;;;;1893470;76;21107;-49
2021/08/12 04:48:41;;;;;;;20.88;14.73;;;23.70;88.40;;;;;;1893296;76;21099;-49
2021/08/12 04:51:11;;;;;;;22.90;14.47;;;23.70;88.40;;;;;;1893271;76;21039;-50
2021/08/12 04:53:42;;;;;;;24.77;15.18;;;23.80;88.50;;;;;;1893206;75;21499;-50
2021/08/12 04:56:11;;;;;;;26.40;16.30;;;23.80;88.40;;;;;;1893273;76;21009;-49
2021/08/12 04:58:41;;;;;;;32.03;18.05;;;23.90;88.50;;;;;;1893248;76;21111;-51
2021/08/12 05:01:11;;;;;;;36.15;23.00;;;24.00;88.40;;;;;;1893320;76;21037;-50
2021/08/12 05:03:41;;;;;;;32.17;20.40;;;24.10;88.30;;;;;;1893282;76;21033;-50
2021/08/12 05:06:14;;;;;;;28.92;19.00;;;24.10;88.10;;;;;;1893245;76;21130;-50
2021/08/12 05:08:43;;;;;;;32.45;19.40;;;24.10;88.10;;;;;;1893175;75;21100;-51
2021/08/12 05:11:18;;;;;;;37.73;19.90;;;24.20;88.10;;;;;;1893380;76;21033;-50
2021/08/12 05:13:43;;;;;;;32.60;19.77;;;24.20;88.10;;;;;;1892072;76;21026;-50
2021/08/12 05:16:14;;;;;;;30.55;20.65;;;24.30;88.00;;;;;;1893343;76;21036;-49
2021/08/12 05:18:44;;;;;;;33.88;20.80;;;24.30;88.10;;;;;;1893345;76;21009;-49
2021/08/12 05:21:14;;;;;;;35.60;20.17;;;24.40;88.20;;;;;;1893315;75;21106;-47
2021/08/12 05:23:45;;;;;;;37.23;19.30;;;24.50;88.10;;;;;;1893364;76;21103;-48
2021/08/12 05:26:14;;;;;;;29.25;19.32;;;24.60;88.00;;;;;;1893171;76;21138;-51
2021/08/12 05:28:44;;;;;;;32.17;18.52;;;24.70;87.80;;;;;;1889944;74;21068;-49
2021/08/12 05:31:15;;;;;;;30.17;18.25;;;24.70;87.50;;;;;;1886478;76;21073;-47
2021/08/12 05:33:45;;;;;;;27.82;18.57;;;24.80;87.30;;;;;;1886734;76;21013;-48
2021/08/12 05:36:15;;;;;;;30.88;18.57;;;24.80;87.30;;;;;;1886726;76;21110;-49
2021/08/12 05:38:44;;;;;;;26.85;17.75;;;24.90;87.00;;;;;;1886752;76;21033;-49
2021/08/12 05:41:14;;;;;;;28.15;19.50;;;25.10;86.70;;;;;;1886893;75;21048;-48
2021/08/12 05:43:44;;;;;;;30.90;19.30;;;25.20;85.70;;;;;;1887016;76;21041;-48
2021/08/12 05:46:14;;;;;;;36.75;26.17;;;25.40;85.50;;;;;;1886556;76;21564;-50
2021/08/12 05:48:44;;;;;;;34.60;22.85;;;25.50;84.80;;;;;;1886400;76;21033;-47
2021/08/12 05:51:14;;;;;;;37.28;22.55;;;25.60;84.40;;;;;;1886661;76;21033;-50
2021/08/12 05:53:43;;;;;;;32.73;20.82;;;25.60;84.20;;;;;;1886867;76;21034;-50
2021/08/12 05:56:13;;;;;;;31.30;18.75;;;25.60;84.00;;;;;;1886864;76;21057;-50
2021/08/12 05:58:44;;;;;;;26.10;17.45;;;25.60;84.00;;;;;;1886653;76;21502;-47
2021/08/12 06:01:14;;;;;;;32.33;18.60;;;25.60;83.70;;;;;;1887065;76;21110;-48
2021/08/12 06:03:44;;;;;;;27.37;16.70;;;25.60;83.70;;;;;;1886942;76;21106;-50
2021/08/12 06:06:15;;;;;;;29.92;15.28;;;25.60;83.60;;;;;;1886998;76;21029;-49
2021/08/12 06:08:44;;;;;;;27.82;16.75;;;25.50;83.40;;;;;;1886994;76;21045;-50
2021/08/12 06:11:14;;;;;;;22.60;14.75;;;25.40;83.50;;;;;;1887112;76;21041;-50
2021/08/12 06:13:43;;;;;;;24.43;14.65;;;25.40;83.60;;;;;;1886958;76;21049;-48
2021/08/12 06:16:13;;;;;;;25.12;13.48;;;25.40;83.70;;;;;;1886900;75;21053;-50
2021/08/12 06:18:42;;;;;;;22.37;13.55;;;25.40;83.90;;;;;;1886881;76;21029;-48
2021/08/12 06:21:14;;;;;;;20.65;12.07;;;25.40;84.00;;;;;;1886969;76;21025;-49
2021/08/12 06:23:44;;;;;;;20.45;12.78;;;25.40;84.10;;;;;;1886874;76;21511;-51
2021/08/12 06:26:14;;;;;;;19.87;11.63;;;25.40;84.10;;;;;;1886890;76;21099;-47
2021/08/12 06:28:46;;;;;;;18.15;10.90;;;25.40;84.10;;;;;;1886872;75;21077;-50
2021/08/12 06:31:16;;;;;;;18.17;11.22;;;25.40;84.00;;;;;;1886812;76;21123;-50
2021/08/12 06:33:46;;;;;;;20.68;11.10;;;25.40;84.10;;;;;;1886849;76;21005;-50
2021/08/12 06:36:16;;;;;;;16.40;10.40;;;25.40;84.20;;;;;;1887083;76;21110;-47
2021/08/12 06:38:45;;;;;;;17.62;11.68;;;25.40;84.30;;;;;;1886921;76;21045;-51
2021/08/12 06:41:15;;;;;;;17.02;12.07;;;25.40;84.30;;;;;;1887060;76;21103;-49
2021/08/12 06:43:46;;;;;;;20.20;13.53;;;25.50;84.10;;;;;;1886740;76;21126;-50
2021/08/12 06:46:15;;;;;;;20.02;14.25;;;25.50;83.90;;;;;;1886938;76;21045;-50
2021/08/12 06:48:45;;;;;;;22.07;14.30;;;25.50;83.90;;;;;;1886890;76;21104;-48
2021/08/12 06:51:14;;;;;;;25.40;13.10;;;25.60;84.00;;;;;;1886797;75;21048;-47
2021/08/12 06:53:44;;;;;;;21.50;12.85;;;25.60;84.00;;;;;;1886957;76;21037;-49
2021/08/12 06:56:14;;;;;;;22.22;12.40;;;25.60;84.00;;;;;;1886911;76;21111;-48
2021/08/12 06:58:44;;;;;;;23.22;11.53;;;25.70;83.90;;;;;;1886940;76;21037;-48
2021/08/12 07:01:14;;;;;;;18.07;11.50;;;25.70;83.80;;;;;;1886779;76;21049;-48
2021/08/12 07:03:44;;;;;;;17.27;10.53;;;25.70;83.80;;;;;;1886877;76;21065;-50
2021/08/12 07:06:14;;;;;;;23.50;11.50;;;25.80;83.80;;;;;;1886745;76;21041;-50
2021/08/12 07:08:43;;;;;;;14.78;9.53;;;25.80;83.80;;;;;;1886771;76;21031;-48
2021/08/12 07:11:13;;;;;;;18.02;10.35;;;25.80;83.70;;;;;;1886901;76;21057;-48
2021/08/12 07:13:43;;;;;;;16.10;10.65;;;25.80;83.80;;;;;;1886834;76;21037;-50
2021/08/12 07:16:17;;;;;;;15.72;9.35;;;25.80;83.80;;;;;;1886063;76;21040;-50
2021/08/12 07:18:48;;;;;;;15.32;8.53;;;25.90;84.00;;;;;;1886437;76;21155;-50
2021/08/12 07:21:19;;;;;;;8.20;6.72;;;26.00;83.90;;;;;;1886815;76;21009;-50
2021/08/12 07:23:49;;;;;;;16.45;14.55;;;26.00;83.80;;;;;;1859708;76;21021;-49
2021/08/12 07:26:20;;;;;;;11.10;8.48;;;26.10;83.70;;;;;;1887015;76;21052;-51
2021/08/12 07:28:49;;;;;;;9.50;7.60;;;26.20;83.50;;;;;;1886848;75;21133;-50
2021/08/12 07:31:19;;;;;;;9.20;6.70;;;26.20;83.60;;;;;;1886941;76;21033;-50
2021/08/12 07:33:48;;;;;;;11.60;7.00;;;26.20;83.50;;;;;;1886791;76;21009;-49
2021/08/12 07:36:18;;;;;;;24.10;9.85;;;26.30;83.30;;;;;;1886857;76;21065;-48
2021/08/12 07:38:48;;;;;;;27.60;21.02;;;26.40;82.90;;;;;;1886726;76;21033;-47
2021/08/12 07:41:18;;;;;;;12.35;7.65;;;26.40;83.10;;;;;;1886846;76;21009;-49
2021/08/12 07:43:47;;;;;;;11.33;7.90;;;26.40;83.00;;;;;;1886786;76;21114;-49
2021/08/12 07:46:17;;;;;;;7.25;6.03;;;26.50;82.80;;;;;;1886764;76;21047;-48
2021/08/12 07:48:47;;;;;;;9.23;6.28;;;26.60;82.40;;;;;;1886823;76;21103;-49
2021/08/12 07:51:18;;;;;;;10.78;5.87;;;26.60;82.50;;;;;;1886902;75;21123;-49
2021/08/12 07:53:47;;;;;;;8.88;6.12;;;26.70;82.00;;;;;;1886931;76;21479;-47
2021/08/12 07:56:17;;;;;;;6.22;5.60;;;26.70;82.00;;;;;;1886851;76;21033;-50
2021/08/12 07:58:47;;;;;;;7.12;5.17;;;26.70;82.00;;;;;;1870917;76;21016;-47
2021/08/12 08:01:20;;;;;;;5.67;5.17;;;26.70;82.10;;;;;;1871149;77;21090;-46
2021/08/12 08:03:50;;;;;;;7.40;4.97;;;26.70;82.20;;;;;;1871761;77;21133;-46
2021/08/12 08:06:20;;;;;;;7.42;6.60;;;26.80;82.20;;;;;;1871647;77;21028;-49
2021/08/12 08:08:49;;;;;;;7.72;5.65;;;26.80;82.10;;;;;;1871935;77;21169;-47
2021/08/12 08:11:19;;;;;;;8.18;6.00;;;26.80;81.70;;;;;;1871676;77;21008;-49
2021/08/12 08:13:49;;;;;;;9.80;6.28;;;26.80;81.80;;;;;;1871875;77;21115;-46
2021/08/12 08:16:21;;;;;;;11.45;6.62;;;26.80;82.10;;;;;;1871835;77;21028;-46
2021/08/12 08:18:49;;;;;;;7.30;6.10;;;26.80;82.20;;;;;;1871709;77;21004;-49
2021/08/12 08:21:19;;;;;;;6.80;5.45;;;26.80;81.70;;;;;;1871926;77;21094;-47
2021/08/12 08:23:48;;;;;;;12.78;6.85;;;26.90;81.20;;;;;;1880350;76;21141;-48
2021/08/12 08:26:17;;;;;;;5.72;4.72;;;26.90;80.80;;;;;;1859935;76;20989;-49
2021/08/12 08:28:47;;;;;;;7.80;5.28;;;26.90;80.40;;;;;;1885814;76;21086;-50
2021/08/12 08:31:16;;;;;;;7.15;5.62;;;27.00;79.90;;;;;;1886016;74;21034;-49
2021/08/12 08:33:46;;;;;;;8.35;5.95;;;27.00;79.60;;;;;;1886081;76;21043;-50
2021/08/12 08:36:15;;;;;;;17.80;7.30;;;27.00;78.80;;;;;;1884666;76;21040;-49
2021/08/12 08:38:45;;;;;;;10.35;7.30;;;27.00;78.70;;;;;;1885956;76;21166;-48
2021/08/12 08:41:14;;;;;;;14.23;11.85;;;27.00;78.60;;;;;;1886023;76;21149;-48
2021/08/12 08:43:45;;;;;;;7.50;5.17;;;27.00;78.70;;;;;;1885823;76;21089;-47
2021/08/12 08:46:16;;;;;;;6.67;4.83;;;27.10;77.70;;;;;;1885415;76;21016;-49
2021/08/12 08:48:47;;;;;;;6.62;4.78;;;27.10;77.80;;;;;;1874857;76;21035;-45
2021/08/12 08:51:17;;;;;;;9.40;5.15;;;27.10;77.20;;;;;;1871207;77;21119;-47
2021/08/12 08:53:47;;;;;;;6.83;5.25;;;27.10;77.40;;;;;;1869508;77;21059;-47
2021/08/12 08:56:19;;;;;;;6.92;5.50;;;27.20;77.40;;;;;;1881949;76;21011;-50
2021/08/12 08:58:49;;;;;;;6.17;5.03;;;27.20;77.10;;;;;;1886026;76;21047;-48
2021/08/12 09:01:18;;;;;;;8.93;5.30;;;27.30;76.50;;;;;;1885941;76;21168;-49
2021/08/12 09:03:49;;;;;;;23.73;6.70;;;27.30;76.70;;;;;;1885737;76;21093;-46
2021/08/12 09:06:19;;;;;;;7.60;5.20;;;27.30;76.80;;;;;;1885585;76;21152;-46
2021/08/12 09:08:48;;;;;;;6.72;4.80;;;27.30;76.70;;;;;;1885753;76;21155;-50
2021/08/12 09:11:17;;;;;;;4.92;4.42;;;27.40;76.80;;;;;;1884455;76;21046;-49
2021/08/12 09:13:46;;;;;;;6.30;4.47;;;27.40;76.60;;;;;;1870860;77;21518;-49
2021/08/12 09:16:37;;;;;;;6.70;4.72;;;27.50;76.50;;;;;;1870807;77;21086;-50
2021/08/12 09:19:20;;;;;;;4.85;4.42;;;27.50;76.30;;;;;;1877656;76;21025;-49
2021/08/12 09:21:45;;;;;;;6.70;4.97;;;27.60;76.30;;;;;;1885117;76;21135;-56
2021/08/12 09:24:15;;;;;;;6.12;4.53;;;27.70;76.30;;;;;;1885797;76;21033;-49
2021/08/12 09:26:44;;;;;;;5.97;5.05;;;27.80;75.80;;;;;;1885700;76;21026;-48
2021/08/12 09:29:29;;;;;;;10.82;5.10;;;27.80;75.60;;;;;;1885972;76;21110;-46
2021/08/12 09:32:04;;;;;;;6.58;4.85;;;27.90;75.20;;;;;;1888908;74;21057;-49
2021/08/12 09:34:48;;;;;;;7.40;4.95;;;28.00;74.90;;;;;;1886658;76;21033;-50
2021/08/12 09:37:18;;;;;;;9.77;5.00;;;28.00;74.80;;;;;;1876045;76;21023;-47
2021/08/12 09:39:47;;;;;;;5.65;4.42;;;28.00;74.40;;;;;;1871612;77;21697;-48
2021/08/12 09:42:17;;;;;;;6.15;4.53;;;28.10;74.20;;;;;;1871711;77;21153;-49
2021/08/12 09:44:53;;;;;;;5.10;4.60;;;28.10;74.10;;;;;;1871799;77;21032;-50
2021/08/12 09:47:29;;;;;;;7.65;4.78;;;28.20;73.80;;;;;;1871797;77;21036;-51
2021/08/12 09:50:00;;;;;;;7.97;5.28;;;28.20;73.80;;;;;;1871846;77;21004;-50
2021/08/12 09:52:35;;;;;;;9.10;5.33;;;28.20;73.90;;;;;;1871852;77;21035;-50
2021/08/12 09:55:23;;;;;;;7.05;4.78;;;28.30;73.70;;;;;;1871065;77;21051;-48
2021/08/12 09:57:53;;;;;;;9.08;4.60;;;28.40;73.80;;;;;;1871293;77;21047;-49
2021/08/12 10:00:41;;;;;;;5.12;4.62;;;28.40;73.60;;;;;;1872096;77;21004;-49
2021/08/12 10:03:30;;;;;;;7.40;4.75;;;28.40;73.60;;;;;;1871999;77;21104;-49
2021/08/12 10:06:02;;;;;;;6.70;4.80;;;28.40;73.20;;;;;;1871798;77;21094;-50
2021/08/12 10:08:36;;;;;;;11.30;5.15;;;28.40;73.20;;;;;;1867613;77;21145;-51
2021/08/12 10:11:25;;;;;;;6.42;5.67;;;28.40;73.20;;;;;;1871907;77;21161;-49
2021/08/12 10:13:56;;;;;;;5.83;4.70;;;28.40;73.50;;;;;;1871765;77;21031;-51
2021/08/12 10:16:27;;;;;;;6.10;4.42;;;28.20;72.50;;;;;;1871809;77;21048;-50
2021/08/12 10:18:58;;;;;;;6.03;3.92;;;27.90;72.40;;;;;;1871887;77;21047;-51
2021/08/12 10:21:28;;;;;;;6.87;4.22;;;27.60;72.70;;;;;;1871851;77;21094;-50
2021/08/12 10:24:00;;;;;;;6.17;3.40;;;27.30;72.30;;;;;;1871800;77;21039;-49
2021/08/12 10:26:30;;;;;;;6.72;3.83;;;27.10;72.60;;;;;;1871650;77;21471;-48
2021/08/12 10:29:13;;;;;;;7.83;5.28;;;26.90;72.70;;;;;;1871792;77;21028;-49
2021/08/12 10:31:47;;;;;;;8.63;4.20;;;26.70;73.00;;;;;;1871971;75;21090;-49
2021/08/12 10:34:16;;;;;;;;;;;26.50;73.60;;;;;;1878048;76;21032;-48
2021/08/12 10:36:49;;;;;;;8.43;5.22;;;26.40;73.80;;;;;;1875239;76;20104;-49
2021/08/12 10:39:20;;;;;;;7.53;4.30;;;26.30;74.20;;;;;;1875108;76;21148;-48
2021/08/12 10:41:50;;;;;;;4.78;4.28;;;26.10;74.70;;;;;;1875227;76;21031;-51
2021/08/12 10:44:23;;;;;;;117.82;106.25;;;25.90;75.70;;;;;;1875114;76;21058;-49
2021/08/12 10:46:52;;;;;;;104.58;93.92;;;25.80;76.90;;;;;;1875299;76;21075;-48
2021/08/12 10:49:33;;;;;;;101.97;91.28;;;25.60;78.10;;;;;;1875249;76;21091;-48
2021/08/12 10:52:11;;;;;;;23.18;17.05;;;25.50;78.90;;;;;;1875119;76;21098;-49
2021/08/12 10:54:42;;;;;;;22.87;16.95;;;25.40;79.40;;;;;;1875164;76;21000;-48
2021/08/12 10:57:20;;;;;;;9.85;8.65;;;25.40;79.80;;;;;;1875146;76;21079;-50
2021/08/12 10:59:51;;;;;;;17.42;12.98;;;25.40;79.90;;;;;;1875132;76;21051;-51
2021/08/12 11:02:32;;;;;;;11.50;7.28;;;25.30;80.20;;;;;;1875143;76;21040;-50
2021/08/12 11:05:06;;;;;;;9.80;6.20;;;25.40;80.60;;;;;;1875024;76;21525;-51
2021/08/12 11:07:39;;;;;;;9.73;5.50;;;25.40;80.60;;;;;;1875229;76;21107;-51
2021/08/12 11:10:13;;;;;;;12.85;5.95;;;25.50;80.40;;;;;;1875242;76;21015;-48
2021/08/12 11:12:57;;;;;;;13.58;6.55;;;25.50;80.30;;;;;;1875211;76;21079;-51
2021/08/12 11:15:42;;;;;;;12.10;7.80;;;25.50;80.30;;;;;;1875397;76;21055;-48
2021/08/12 11:18:14;;;;;;;14.63;9.43;;;25.50;80.70;;;;;;1875151;76;21078;-51
2021/08/12 11:20:46;;;;;;;26.62;23.80;;;25.40;80.90;;;;;;1875125;76;21023;-50
2021/08/12 11:23:25;;;;;;;13.28;9.73;;;25.30;81.20;;;;;;1875210;76;21032;-50
2021/08/12 11:26:02;;;;;;;17.95;14.80;;;25.20;81.50;;;;;;1875338;76;21044;-50
2021/08/12 11:28:45;;;;;;;13.90;7.90;;;25.10;82.10;;;;;;1875145;76;21095;-48
2021/08/12 11:31:28;;;;;;;10.80;7.33;;;25.00;82.50;;;;;;1875435;76;21028;-52
2021/08/12 11:34:02;;;;;;;12.68;9.63;;;25.00;83.30;;;;;;1875221;75;21525;-48
2021/08/12 11:36:34;;;;;;;19.52;14.93;;;25.10;83.20;;;;;;1875273;76;21116;-49
2021/08/12 11:39:08;;;;;;;12.35;10.65;;;25.10;83.10;;;;;;1875145;76;21051;-51
2021/08/12 11:41:39;;;;;;;11.95;7.80;;;25.10;83.10;;;;;;1875469;76;21094;-51
2021/08/12 11:44:16;;;;;;;9.68;6.60;;;25.10;83.10;;;;;;1875146;76;21122;-49
2021/08/12 11:46:46;;;;;;;9.70;7.03;;;25.20;83.30;;;;;;1875264;76;21036;-48
2021/08/12 11:49:20;;;;;;;10.23;7.00;;;25.20;83.40;;;;;;1875118;76;21035;-48
2021/08/12 11:51:49;;;;;;;7.92;6.33;;;25.20;83.50;;;;;;1875236;76;21024;-48
2021/08/12 11:54:28;;;;;;;6.45;5.70;;;25.30;83.60;;;;;;1875270;76;21032;-47
2021/08/12 11:56:58;;;;;;;7.10;6.17;;;25.30;83.60;;;;;;1875271;76;21051;-49
2021/08/12 11:59:28;;;;;;;10.08;6.62;;;25.40;83.70;;;;;;1875172;76;21032;-49
2021/08/12 12:01:59;;;;;;;12.40;6.78;;;25.40;83.60;;;;;;1875273;76;21098;-48
2021/08/12 12:04:32;;;;;;;11.95;7.75;;;25.50;83.90;;;;;;1874068;76;21000;-50
2021/08/12 12:07:01;;;;;;;7.15;5.40;;;25.50;83.80;;;;;;1875124;76;21020;-48
2021/08/12 12:09:32;;;;;;;10.43;6.72;;;25.60;83.80;;;;;;1875278;76;21008;-49
2021/08/12 12:12:09;;;;;;;7.47;6.12;;;25.60;83.70;;;;;;1875155;76;21004;-50
2021/08/12 12:14:43;;;;;;;11.80;6.22;;;25.70;83.40;;;;;;1875192;76;21102;-49
2021/08/12 12:17:18;;;;;;;9.38;6.83;;;25.70;83.00;;;;;;1875245;76;21086;-48
2021/08/12 12:20:07;;;;;;;8.88;6.92;;;25.80;83.10;;;;;;1874988;76;21100;-50
2021/08/12 12:22:39;;;;;;;11.60;7.28;;;25.80;83.20;;;;;;1875277;76;21031;-50
2021/08/12 12:25:10;;;;;;;13.20;8.58;;;25.80;83.20;;;;;;1875271;76;21471;-47
2021/08/12 12:27:40;;;;;;;8.63;6.67;;;25.70;83.60;;;;;;1873065;76;21491;-49
2021/08/12 12:30:14;;;;;;;11.70;7.50;;;25.80;83.60;;;;;;1875242;76;21043;-51
2021/08/12 12:32:46;;;;;;;9.55;6.30;;;25.80;83.80;;;;;;1875182;75;21039;-50
2021/08/12 12:35:16;;;;;;;11.00;8.03;;;25.80;83.50;;;;;;1873477;76;21118;-51
2021/08/12 12:37:46;;;;;;;15.28;10.85;;;25.90;83.60;;;;;;1875254;76;21474;-48
2021/08/12 12:40:20;;;;;;;10.23;7.58;;;25.90;83.40;;;;;;1875371;76;21106;-50
2021/08/12 12:42:54;;;;;;;9.85;7.15;;;26.00;83.30;;;;;;1875177;76;21035;-48
2021/08/12 12:45:23;;;;;;;10.45;9.05;;;26.00;83.10;;;;;;1875135;76;21082;-48
2021/08/12 12:47:53;;;;;;;15.00;9.48;;;26.00;82.80;;;;;;1875130;76;21103;-50
2021/08/12 12:50:24;;;;;;;10.63;8.28;;;26.00;83.10;;;;;;1875132;76;21632;-49
2021/08/12 12:53:04;;;;;;;9.90;7.28;;;26.00;82.90;;;;;;1874992;76;21099;-50
2021/08/12 12:55:35;;;;;;;10.88;6.58;;;26.10;83.00;;;;;;1875178;76;21129;-49
2021/08/12 12:58:26;;;;;;;8.88;7.10;;;26.20;82.80;;;;;;1875120;76;21446;-49